Burkburnett, Texas
Current Conditions -  °F | °C
As of 12:52 PM on Friday 24 Oct 2014 (Local Time) from KSPS Reporting Station
Clear Clear  
Wind Chill: 81°   Ceiling: Unl
Heat Index: 82°   Visibility: 10mi
Dew Point: 63°   Wind: 13mph
Humidity: 54%   Direction: 210°SSW
Pressure: 30.1"   Gusts: NA
Location:  34.08°N, 98.56°W
Report Text: KSPS 241752Z 21011KT 10SM CLR 27/17 A3010 RMK AO2 SLP181 T02720172 10272 20144 58007
Loading
Personal Weather Stations






























Interactive Weather Map
Tropical Storm Tracking
New forecast layout! Learn more

10-Day Weather Forecast

Advertisements
Track Severe Weather on mobile